Fredericksburg, VA

12:37 PM EST on December 09, 2016 (GMT -0500)
Shannon | | Change Station

Elev 85 ft 38.27 °N, 77.45 °W | Updated 22 minutes ago

Clear
Clear
39 °F
Feels Like 32 °F
N
12
Wind Variable Wind from NNW
Gusts 22 mph

Today
High -- | Low -- °F
--% Chance of Precip.
Yesterday
High -- | Low -- °F
Precip. -- in
Pressure 30.34 in
Visibility 10.0 miles
Clouds Clear
Windchill 32 °F
Dew Point 17 °F
Humidity 41%
Rainfall 0.00 in
Snow Depth Not available.
7:15 AM 4:49 PM
Waxing Gibbous, 75% visible
METAR KEZF 091715Z AUTO 33010G19KT 10SM CLR 04/M08 A3034 RMK AO2 T00401081
Pressure 30.34 in
Visibility 10.0 miles
Clouds Clear
Windchill 32 °F
Dew Point 17 °F
Humidity 41%
Rainfall 0.00 in
Snow Depth Not available.
7:15 AM 4:49 PM
Waxing Gibbous, 75% visible
METAR KEZF 091715Z AUTO 33010G19KT 10SM CLR 04/M08 A3034 RMK AO2 T00401081

10-Day Weather Forecast

Almanac

Astronomy

Dec. 09, 2016 Rise Set
Actual Time
Civil Twilight
Nautical Twilight
Astronomical Twilight
Moon
Length of Visible Light
Length of Day
Tomorrow will be .
, % of the Moon is Illuminated

Today's Extremes

State Highs State Lows

Community

WunderPhotos

Upload Photos

1,956,462 photos uploaded!

WunderBlog® & News

Nearby

Air Quality

  Air Quality AQ Index Pollutant
Not available.

Snow Depth

Station Depth Elevation

Earthquake Activity

City Distance Mag. Time & Date
Minimum magnitude displayed is 2.5.

Coastal Water Temperatures

Place Temperature

Stations

Nearby Weather Stations

Station Location Temp. Windchill Dew Point Humidity Wind Precip. Elev Updated Type
                   

Watches & Warnings

There are currently no watches in effect.